Gillette, WY (82716)

3:19 PM MDT on August 27, 2014 (GMT -0600)
RAWS ECHETA WY US | Change Station
CLOSE
Current Station
Personal Weather Station
Location: Gillette, WY
Elevation: 4396 ft
Nearby Weather Stations

Elev 4396 ft 44.47 °N, 105.84 °W | Updated 1 hour ago

Partly Cloudy
Partly Cloudy
80 °F
Feels Like 80 °F
N
2
Wind Variable Wind from East
Gusts 12.0 mph

Today
High -- | Low -- °F
--% Chance of Precip.
Yesterday
High -- | Low -- °F
Precip. -- in
6:19 AM 7:48 PM
Waxing Crescent, 5% visible
Pressure 29.98 in
Visibility 10.0 miles
Clouds Scattered Clouds 6000 ft
Heat Index 80 °F
Dew Point 52 °F
Humidity 38%
Rainfall 0.00 in
Snow Depth Not available.
UV 6 out of 12
Pollen 8.30 out of 12
Air Quality Not available.
Flu Activity Not available.
METAR KGCC 272053Z AUTO 00000KT 10SM SCT060 26/12 A3009 RMK AO2 LTG DSNT SE SLP151 T02610117 58014

More Conditions Fewer Conditions

Pressure 29.98 in
Visibility 10.0 miles
Clouds Scattered Clouds 6000 ft
Heat Index 80 °F
Dew Point 52 °F
Humidity 38%
Rainfall 0.00 in
Snow Depth Not available.
UV 6 out of 12
Pollen 8.30 out of 12
Air Quality Not available.
Flu Activity Not available.
METAR KGCC 272053Z AUTO 00000KT 10SM SCT060 26/12 A3009 RMK AO2 LTG DSNT SE SLP151 T02610117 58014

More Conditions Fewer Conditions

10-Day Weather Forecast

Almanac

Astronomy

Aug. 27, 2014 Rise Set
Actual Time 6:19 AM MDT 7:48 PM MDT
Civil Twilight 5:48 AM MDT 8:18 PM MDT
Nautical Twilight 5:12 AM MDT 8:55 PM MDT
Astronomical Twilight 4:32 AM MDT 9:34 PM MDT
Moon 8:24 AM MDT 8:34 PM MDT
Length of Visible Light 14h 29m
Length of Day
13h 28m
Tomorrow will be 2m 55s shorter.
Waxing Crescent, 5% of the Moon is Illuminated
Today
Waxing Crescent
Sep 2
First Quarter
Sep 8
Full
Sep 15
Last Quarter
Sep 24
New

Today's Extremes

State Highs State Lows

Community

WunderPhotos

Upload Photos

1,747,789 photos uploaded!

Nearby

Snow Depth

Station Depth Elevation
Middle Powder 0 in 7760 ft
Casper Mountain 1 in 7850 ft
Reno Hill 0 in 8500 ft
Marquette 0 in 8760 ft
Owl Creek 0 in 8975 ft

Earthquake Activity

City Distance Mag. Time & Date
No recent earthquake activity has been reported nearby.
Minimum magnitude displayed is 2.5.

Coastal Water Temperatures

Place Temperature
No Stations Reporting

Nearby Weather Stations